MSC Cordoba — A8OF8 — position and weather

sailwx.info

Track history (hours):
 
Tides and Currents Weather Stations Pressure Air Temp Water Temp Dewpoint Dewpoint Depression Visibility Wind Speed Wind Dir Waves Ship Positions

MSC Cordoba

Last reported at 2015-May-04 18:33 UTC. Time now 2015-May-05 07:13 UTC.
Position N 39°07' W 009°52'.

Length 275 m; draft 11.5 m.

Type: Ship. MMSI: 636091473.

Date/timePositionNaut miles runAvg speedWind from/ knotsBaromVisibWave heightAir tempDewpointWater temp
2015-May-04 18:33N 39°07' W 009°52'1818.3
2015-May-04 17:33N 38°49' W 009°52'1818.0
2015-May-04 16:33N 38°31' W 009°48'1817.8
2015-May-04 15:33N 38°14' W 009°43'1918.4
2015-May-04 14:32N 37°55' W 009°39'1919.1
2015-May-04 13:33N 37°37' W 009°34'7217.9
2015-May-04 09:33N 36°37' W 008°45'2019.9
2015-May-04 08:33N 36°32' W 008°21'2020.4
2015-May-04 07:33N 36°26' W 007°57'2020.3
2015-May-04 06:33N 36°19' W 007°33'2020.3
2015-May-04 05:33N 36°13' W 007°09'2020.3
2015-May-04 04:33N 36°06' W 006°45'2020.1
2015-May-04 03:33N 36°00' W 006°21'2919.2
2015-May-04 02:05N 35°57' W 005°46'1019.6
2015-May-04 01:33N 35°58' W 005°34'1818.0
2015-May-04 00:33N 36°03' W 005°12'21420.4
2015-May-03 14:06N 36°35' W 000°50'1220.9
2015-May-03 13:32N 36°36' W 000°35'2120.6
2015-May-03 12:32N 36°39' W 000°10'2020.7
2015-May-03 11:33N 36°41' E 000°15'2020.3
2015-May-03 10:33N 36°45' E 000°40'2020.2
2015-May-03 09:33N 36°47' E 001°05'2019.5
2015-May-03 08:33N 36°50' E 001°29'1919.4
2015-May-03 07:33N 36°53' E 001°53'2120.0
2015-May-03 06:30N 36°56' E 002°19'1819.1
2015-May-03 05:33N 36°58' E 002°42'1919.0
2015-May-03 04:33N 37°01' E 003°05'9819.5
2015-May-02 23:30N 37°14' E 005°08'20220.2
2015-May-02 13:28N 37°38' E 009°21'1819.4
2015-May-02 12:33N 37°39' E 009°43'1919.4
2015-May-02 11:33N 37°40' E 010°08'8019.8
2015-May-02 07:30N 37°15' E 011°43'1919.7
2015-May-02 06:33N 37°07' E 012°05'4020.1
2015-May-02 04:33N 36°55' E 012°53'2020.4
2015-May-02 03:33N 36°49' E 013°17'2020.2
2015-May-02 02:33N 36°43' E 013°41'2020.4
2015-May-02 01:33N 36°36' E 014°05'2120.6
2015-May-02 00:33N 36°29' E 014°29'2020.2
2015-May-01 23:33N 36°28' E 014°54'2020.1
2015-May-01 22:33N 36°27' E 015°19'2120.2
2015-May-01 21:30N 36°26' E 015°46'713.7
2015-May-01 21:00N 36°24' E 015°54'41918.6 260 / 91019.010.8 24.010.618.0
2015-Apr-30 22:29N 37°39' E 024°30'  
2015-Apr-26 02:04N 39°50' E 025°49'13612.7
2015-Apr-25 15:22N 37°47' E 024°34'5418.0
2015-Apr-25 12:23N 37°04' E 023°53'3818.3
2015-Apr-25 10:18N 36°35' E 023°23'  
Track history (hours):
 
Tides and Currents Weather Stations Pressure Air Temp Water Temp Dewpoint Dewpoint Depression Visibility Wind Speed Wind Dir Waves Ship Positions

MSC Cordoba

Last reported at 2015-May-04 18:33 UTC. Time now 2015-May-05 07:13 UTC.
Position N 39°07' W 009°52'.

Length 275 m; draft 11.5 m.

Type: Ship. MMSI: 636091473.

Date/timePositionNaut miles runAvg speedWind from/ knotsBaromVisibWave heightAir tempDewpointWater temp
2015-May-04 18:33N 39°07' W 009°52'1818.3
2015-May-04 17:33N 38°49' W 009°52'1818.0
2015-May-04 16:33N 38°31' W 009°48'1817.8
2015-May-04 15:33N 38°14' W 009°43'1918.4
2015-May-04 14:32N 37°55' W 009°39'1919.1
2015-May-04 13:33N 37°37' W 009°34'7217.9
2015-May-04 09:33N 36°37' W 008°45'2019.9
2015-May-04 08:33N 36°32' W 008°21'2020.4
2015-May-04 07:33N 36°26' W 007°57'2020.3
2015-May-04 06:33N 36°19' W 007°33'2020.3
2015-May-04 05:33N 36°13' W 007°09'2020.3
2015-May-04 04:33N 36°06' W 006°45'2020.1
2015-May-04 03:33N 36°00' W 006°21'2919.2
2015-May-04 02:05N 35°57' W 005°46'1019.6
2015-May-04 01:33N 35°58' W 005°34'1818.0
2015-May-04 00:33N 36°03' W 005°12'21420.4
2015-May-03 14:06N 36°35' W 000°50'1220.9
2015-May-03 13:32N 36°36' W 000°35'2120.6
2015-May-03 12:32N 36°39' W 000°10'2020.7
2015-May-03 11:33N 36°41' E 000°15'2020.3
2015-May-03 10:33N 36°45' E 000°40'2020.2
2015-May-03 09:33N 36°47' E 001°05'2019.5
2015-May-03 08:33N 36°50' E 001°29'1919.4
2015-May-03 07:33N 36°53' E 001°53'2120.0
2015-May-03 06:30N 36°56' E 002°19'1819.1
2015-May-03 05:33N 36°58' E 002°42'1919.0
2015-May-03 04:33N 37°01' E 003°05'9819.5
2015-May-02 23:30N 37°14' E 005°08'20220.2
2015-May-02 13:28N 37°38' E 009°21'1819.4
2015-May-02 12:33N 37°39' E 009°43'1919.4
2015-May-02 11:33N 37°40' E 010°08'8019.8
2015-May-02 07:30N 37°15' E 011°43'1919.7
2015-May-02 06:33N 37°07' E 012°05'4020.1
2015-May-02 04:33N 36°55' E 012°53'2020.4
2015-May-02 03:33N 36°49' E 013°17'2020.2
2015-May-02 02:33N 36°43' E 013°41'2020.4
2015-May-02 01:33N 36°36' E 014°05'2120.6
2015-May-02 00:33N 36°29' E 014°29'2020.2
2015-May-01 23:33N 36°28' E 014°54'2020.1
2015-May-01 22:33N 36°27' E 015°19'2120.2
2015-May-01 21:30N 36°26' E 015°46'713.7
2015-May-01 21:00N 36°24' E 015°54'41918.6 260 / 91019.010.8 24.010.618.0
2015-Apr-30 22:29N 37°39' E 024°30'  
2015-Apr-26 02:04N 39°50' E 025°49'13612.7
2015-Apr-25 15:22N 37°47' E 024°34'5418.0
2015-Apr-25 12:23N 37°04' E 023°53'3818.3
2015-Apr-25 10:18N 36°35' E 023°23'  

Dump ship's entire track history